Pleasant Garden, North Carolina
Current Conditions -  °F | °C
As of 3:54 AM on Sunday 21 Dec 2014 (Local Time) from KGSO Reporting Station
Haze Haze  
Wind Chill: 39°   Ceiling: 2900
Heat Index: 39°   Visibility: 5mi
Dew Point: 35°   Wind: 0mph
Humidity: 86%   Direction: NA
Pressure: 30.23"   Gusts: NA
Location:  35.96°N, 79.76°W
Report Text: KGSO 210854Z 00000KT 5SM BR OVC029 04/02 A3023 RMK AO2 SLP242 T00390017 58002
Loading
Personal Weather Stations






























Interactive Weather Map New forecast layout! Learn more

10-Day Weather Forecast

Advertisements
Track Severe Weather on mobile